Time;durP1;ratioP1;P1;durP2;ratioP2;P2;SDS_P1;SDS_P2;PMS_P1;PMS_P2;Temp;Humidity;BMP_temperature;BMP_pressure;BME280_temperature;BME280_humidity;BME280_pressure;Samples;Min_cycle;Max_cycle;Signal;HPM_P1;HPM_P2
2021/09/17 00:01:03;;;;;;;;;0.25;0.25;;;;;17.23;62.32;101275.75;5084785;28;46072;-81
2021/09/17 00:03:32;;;;;;;;;0.00;0.00;;;;;17.81;62.22;101385.69;5084589;28;45419;-82
2021/09/17 00:05:58;;;;;;;;;1.50;0.00;;;;;17.86;62.74;101399.69;5065950;28;45268;-82
2021/09/17 00:08:23;;;;;;;;;2.50;0.25;;;;;17.90;62.61;101398.75;5084479;28;45182;-81
2021/09/17 00:10:49;;;;;;;;;1.00;1.00;;;;;17.44;62.65;101329.94;5081186;27;48205;-81
2021/09/17 00:13:14;;;;;;;;;0.00;0.00;;;;;17.27;62.90;101300.28;5084541;27;45295;-81
2021/09/17 00:15:51;;;;;;;;;0.00;0.00;;;;;17.32;62.48;101312.50;5085174;28;45379;-81
2021/09/17 00:18:16;;;;;;;;;0.25;0.25;;;;;17.76;62.83;101396.25;5086945;27;45287;-82
2021/09/17 00:20:42;;;;;;;;;1.00;0.00;;;;;17.13;62.47;101287.28;5083951;28;46104;-82
2021/09/17 00:23:08;;;;;;;;;1.00;0.00;;;;;18.23;62.88;101474.81;5084203;27;45677;-81
2021/09/17 00:25:33;;;;;;;;;1.00;1.00;;;;;18.07;63.10;101463.56;5084125;27;45559;-81
2021/09/17 00:27:59;;;;;;;;;0.25;0.25;;;;;17.80;62.80;101416.41;5082881;28;45460;-81
2021/09/17 00:30:28;;;;;;;;;0.25;0.00;;;;;17.78;63.33;101414.69;5084290;27;45300;-80
2021/09/17 00:32:54;;;;;;;;;0.75;0.75;;;;;17.95;63.54;101460.13;5082560;28;45535;-80
2021/09/17 00:35:19;;;;;;;;;1.75;1.75;;;;;17.84;63.18;101436.56;5083921;28;45311;-81
2021/09/17 00:37:44;;;;;;;;;1.00;1.00;;;;;18.02;63.51;101471.50;5085342;27;45300;-81
2021/09/17 00:40:10;;;;;;;;;1.00;1.00;;;;;17.82;63.48;101440.09;5084393;27;45386;-80
2021/09/17 00:42:37;;;;;;;;;1.50;1.50;;;;;17.95;63.57;101464.56;5086035;27;45349;-80
2021/09/17 00:45:08;;;;;;;;;1.00;1.00;;;;;17.94;63.67;101462.78;5084329;27;45545;-82
2021/09/17 00:47:34;;;;;;;;;1.00;1.00;;;;;17.73;63.59;101433.16;5101140;27;45564;-80
2021/09/17 00:49:59;;;;;;;;;1.25;1.25;;;;;17.58;63.37;101410.50;5100953;27;47186;-80
2021/09/17 00:52:25;;;;;;;;;1.75;1.75;;;;;17.76;63.68;101445.44;5084347;27;45321;-80
2021/09/17 00:54:51;;;;;;;;;4.50;2.00;;;;;17.64;63.66;101438.53;5084615;28;45365;-80
2021/09/17 00:57:17;;;;;;;;;0.25;0.25;;;;;17.52;63.98;101416.69;5083070;28;45484;-80
2021/09/17 00:59:42;;;;;;;;;3.00;2.00;;;;;17.50;64.06;101420.22;5083485;27;46316;-80
2021/09/17 01:02:08;;;;;;;;;1.00;1.00;;;;;17.55;64.38;101431.59;5082932;28;45457;-80
2021/09/17 01:04:33;;;;;;;;;2.00;0.25;;;;;17.43;64.06;101415.00;5084389;27;45346;-81
2021/09/17 01:06:58;;;;;;;;;1.75;1.00;;;;;17.23;64.46;101388.91;5083580;28;45394;-80
2021/09/17 01:09:25;;;;;;;;;0.50;0.50;;;;;17.57;64.49;101450.88;5081158;28;47224;-80
2021/09/17 01:11:50;;;;;;;;;1.00;1.00;;;;;17.06;64.60;101366.22;5082775;28;45275;-80
2021/09/17 01:14:17;;;;;;;;;0.00;0.00;;;;;17.31;64.50;101410.72;5082860;28;45231;-80
2021/09/17 01:16:42;;;;;;;;;0.25;0.25;;;;;17.24;64.83;101395.88;5082311;28;45623;-80
2021/09/17 01:19:08;;;;;;;;;0.25;0.25;;;;;17.39;65.04;101425.59;5081395;28;47076;-80
2021/09/17 01:21:33;;;;;;;;;0.00;0.00;;;;;17.11;64.82;101379.34;5084440;27;45197;-80
2021/09/17 01:23:59;;;;;;;;;0.50;0.50;;;;;17.46;64.61;101437.81;5085390;27;45788;-80
2021/09/17 01:26:24;;;;;;;;;1.00;1.00;;;;;17.45;64.80;101438.69;5085882;27;45302;-81
2021/09/17 01:28:49;;;;;;;;;1.00;1.00;;;;;17.37;65.24;101444.03;5083997;27;45549;-80
2021/09/17 01:31:15;;;;;;;;;1.00;1.00;;;;;17.34;64.83;101412.50;5084249;27;45367;-80
2021/09/17 01:33:40;;;;;;;;;0.50;0.00;;;;;17.12;65.18;101372.34;5086088;27;45314;-81
2021/09/17 01:36:09;;;;;;;;;1.00;1.00;;;;;17.34;64.58;101408.06;5085664;27;45408;-81
2021/09/17 01:38:37;;;;;;;;;1.00;1.00;;;;;17.34;65.16;101421.22;5083932;27;45282;-80
2021/09/17 01:41:03;;;;;;;;;1.00;1.00;;;;;17.03;64.80;101374.09;5083662;28;45401;-81
2021/09/17 01:43:29;;;;;;;;;0.00;0.00;;;;;17.22;64.96;101409.06;5082276;28;45471;-82
2021/09/17 01:45:55;;;;;;;;;1.00;1.00;;;;;17.25;65.67;101413.44;5082534;28;45661;-81
2021/09/17 01:48:20;;;;;;;;;0.75;0.75;;;;;16.92;65.67;101355.81;5083270;28;45788;-80
2021/09/17 01:50:46;;;;;;;;;1.00;1.00;;;;;17.20;65.16;101409.97;5083615;27;45347;-81
2021/09/17 01:53:11;;;;;;;;;1.00;1.00;;;;;17.18;65.51;101403.84;5083963;28;45300;-81
2021/09/17 01:55:37;;;;;;;;;0.00;0.00;;;;;17.04;65.96;101388.16;5083314;27;45297;-82
2021/09/17 01:58:04;;;;;;;;;1.50;0.00;;;;;17.17;65.37;101402.09;5083640;27;45311;-82
2021/09/17 02:00:29;;;;;;;;;1.00;1.00;;;;;17.06;65.83;101387.28;5081013;27;45259;-82
2021/09/17 02:02:55;;;;;;;;;0.50;0.50;;;;;16.87;66.04;101352.31;5065278;28;45245;-81
2021/09/17 02:05:20;;;;;;;;;0.00;0.00;;;;;17.12;65.68;101394.22;5082808;27;45213;-82
2021/09/17 02:07:46;;;;;;;;;0.75;0.75;;;;;17.07;65.75;101389.03;5083170;27;45214;-82
2021/09/17 02:10:12;;;;;;;;;0.00;0.00;;;;;17.02;65.58;101376.75;5082384;27;45211;-81
2021/09/17 02:12:40;;;;;;;;;0.00;0.00;;;;;16.94;65.91;101363.69;5082922;28;45251;-82
2021/09/17 02:15:06;;;;;;;;;0.00;0.00;;;;;16.87;66.03;101354.97;5071492;28;45348;-82
2021/09/17 02:17:32;;;;;;;;;1.50;0.00;;;;;16.97;66.00;101368.94;5062729;28;46421;-82
2021/09/17 02:19:57;;;;;;;;;0.75;0.75;;;;;17.04;65.94;101372.38;5062318;28;45342;-81
2021/09/17 02:22:23;;;;;;;;;1.75;1.75;;;;;16.94;66.02;101367.16;5044339;28;45283;-81
2021/09/17 02:24:49;;;;;;;;;0.00;0.00;;;;;16.89;65.99;101353.19;5081966;28;45354;-82
2021/09/17 02:27:14;;;;;;;;;0.25;0.25;;;;;16.80;66.16;101338.38;5082490;28;45216;-81
2021/09/17 02:29:40;;;;;;;;;0.00;0.00;;;;;16.86;66.30;101363.75;5082007;28;45322;-81
2021/09/17 02:32:05;;;;;;;;;0.00;0.00;;;;;16.77;66.41;101351.53;5064235;28;45330;-81
2021/09/17 02:34:30;;;;;;;;;0.00;0.00;;;;;16.81;66.70;101358.50;5082757;28;45318;-81
2021/09/17 02:36:56;;;;;;;;;0.00;0.00;;;;;16.68;66.96;101344.59;5082368;28;46501;-81
2021/09/17 02:39:21;;;;;;;;;1.25;1.25;;;;;16.63;66.59;101343.75;5048236;28;45690;-80
2021/09/17 02:41:46;;;;;;;;;0.00;0.00;;;;;16.51;66.71;101321.03;5044336;28;45327;-79
2021/09/17 02:44:12;;;;;;;;;1.00;1.00;;;;;16.56;67.04;101336.78;5062655;28;45525;-80
2021/09/17 02:46:37;;;;;;;;;0.00;0.00;;;;;16.78;66.90;101361.16;5062256;28;45575;-79
2021/09/17 02:49:03;;;;;;;;;0.00;0.00;;;;;16.73;66.76;101355.06;5075751;28;45255;-79
2021/09/17 02:51:29;;;;;;;;;1.25;0.00;;;;;16.44;67.08;101287.81;5082973;28;45218;-80
2021/09/17 02:53:54;;;;;;;;;3.00;0.75;;;;;16.66;66.78;101327.09;5082874;28;45410;-80
2021/09/17 02:56:20;;;;;;;;;0.00;0.00;;;;;16.83;66.70;101362.00;5064464;28;47192;-80
2021/09/17 02:58:45;;;;;;;;;0.00;0.00;;;;;16.76;66.46;101347.16;5082770;28;45326;-80
2021/09/17 03:01:10;;;;;;;;;0.50;0.25;;;;;16.74;66.51;101340.16;5082103;28;45410;-80
2021/09/17 03:03:36;;;;;;;;;0.00;0.00;;;;;16.76;67.04;101330.50;5078070;28;45299;-82
2021/09/17 03:06:01;;;;;;;;;2.50;0.75;;;;;16.87;66.84;101354.97;5081907;28;45460;-80
2021/09/17 03:08:27;;;;;;;;;0.00;0.00;;;;;16.84;66.61;101350.59;5065722;28;45354;-80
2021/09/17 03:10:56;;;;;;;;;0.50;0.50;;;;;16.84;66.74;101352.34;5062452;28;45357;-79
2021/09/17 03:13:24;;;;;;;;;0.00;0.00;;;;;16.84;66.73;101347.97;5044500;28;45601;-81
2021/09/17 03:15:49;;;;;;;;;0.00;0.00;;;;;16.84;66.85;101344.47;5063963;28;46346;-80
2021/09/17 03:18:14;;;;;;;;;0.00;0.00;;;;;16.63;66.63;101313.97;5047644;28;45380;-81
2021/09/17 03:20:41;;;;;;;;;0.00;0.00;;;;;16.77;66.87;101330.50;5067103;28;45330;-80
2021/09/17 03:23:07;;;;;;;;;0.00;0.00;;;;;16.80;66.88;101334.84;5049223;28;45322;-81
2021/09/17 03:25:32;;;;;;;;;0.00;0.00;;;;;16.74;67.03;101319.13;5048665;28;46854;-80
2021/09/17 03:27:57;;;;;;;;;0.75;0.75;;;;;16.51;66.56;101284.25;5065279;28;45342;-81
2021/09/17 03:30:23;;;;;;;;;0.00;0.00;;;;;16.62;66.60;101299.94;5046825;28;45240;-80
2021/09/17 03:32:48;;;;;;;;;2.00;0.00;;;;;16.64;66.92;101316.59;5065780;28;45339;-81
2021/09/17 03:35:13;;;;;;;;;2.25;1.00;;;;;16.62;66.61;101314.84;5064809;28;45438;-80
2021/09/17 03:37:39;;;;;;;;;0.00;0.00;;;;;16.68;67.01;101317.41;5047174;28;45261;-80
2021/09/17 03:40:05;;;;;;;;;0.00;0.00;;;;;16.77;66.56;101321.72;5048145;28;45280;-81
2021/09/17 03:42:30;;;;;;;;;1.00;1.00;;;;;16.63;67.04;101301.69;5065899;28;45407;-81
2021/09/17 03:44:56;;;;;;;;;1.00;1.00;;;;;16.50;66.67;101281.63;5040815;28;47016;-81
2021/09/17 03:47:21;;;;;;;;;0.00;0.00;;;;;16.44;66.71;101272.03;5045786;28;45236;-80
2021/09/17 03:49:47;;;;;;;;;0.25;0.25;;;;;16.51;66.79;101281.63;5065332;28;45912;-81
2021/09/17 03:52:12;;;;;;;;;0.00;0.00;;;;;16.79;66.59;101326.13;5064909;28;45210;-81
2021/09/17 03:54:37;;;;;;;;;0.50;0.00;;;;;16.66;67.02;101312.19;5065832;28;45320;-82
2021/09/17 03:57:03;;;;;;;;;0.75;0.75;;;;;16.75;66.93;101315.63;5066986;28;45248;-82
2021/09/17 03:59:28;;;;;;;;;0.00;0.00;;;;;16.49;66.42;101280.78;5066114;28;45292;-81
2021/09/17 04:01:54;;;;;;;;;0.25;0.25;;;;;16.54;66.42;101288.63;5066338;28;45469;-82
2021/09/17 04:04:19;;;;;;;;;1.00;0.00;;;;;16.67;67.03;101310.44;5064932;28;45380;-80
2021/09/17 04:06:45;;;;;;;;;0.00;0.00;;;;;16.52;66.69;101300.91;5063954;28;45457;-81
2021/09/17 04:09:11;;;;;;;;;0.00;0.00;;;;;16.74;67.00;101321.75;5053062;28;45379;-81
2021/09/17 04:11:37;;;;;;;;;2.00;0.00;;;;;16.48;66.64;101300.06;5074965;28;45552;-81
2021/09/17 04:14:03;;;;;;;;;1.00;1.00;;;;;16.46;67.25;101297.44;5066363;27;45340;-81
2021/09/17 04:16:28;;;;;;;;;0.00;0.00;;;;;16.36;67.13;101284.38;5084423;27;45448;-81
2021/09/17 04:18:54;;;;;;;;;1.75;0.00;;;;;16.51;66.69;101304.41;5072139;27;45461;-82
2021/09/17 04:21:19;;;;;;;;;1.00;1.00;;;;;16.44;67.43;101308.81;5064849;28;45282;-81
2021/09/17 04:23:45;;;;;;;;;0.00;0.00;;;;;16.40;67.34;101313.25;5072923;28;45540;-80
2021/09/17 04:26:10;;;;;;;;;0.00;0.00;;;;;16.35;67.03;101304.50;5082916;28;45241;-79
2021/09/17 04:28:35;;;;;;;;;1.00;1.00;;;;;16.29;67.41;101296.69;5073462;27;45234;-80
2021/09/17 04:31:01;;;;;;;;;0.00;0.00;;;;;16.28;67.44;101298.44;5078347;28;45356;-80
2021/09/17 04:33:26;;;;;;;;;2.00;0.00;;;;;16.39;67.06;101314.13;5082416;28;48148;-80
2021/09/17 04:35:51;;;;;;;;;0.25;0.25;;;;;16.30;67.51;101306.31;5082560;28;45264;-80
2021/09/17 04:38:17;;;;;;;;;1.50;1.50;;;;;16.18;67.35;101278.34;5084292;27;45339;-80
2021/09/17 04:40:43;;;;;;;;;0.25;0.25;;;;;16.44;67.80;101317.59;5082172;28;45166;-80
2021/09/17 04:43:09;;;;;;;;;1.00;1.00;;;;;16.15;67.60;101266.13;5082799;28;46148;-79
2021/09/17 04:45:35;;;;;;;;;0.00;0.00;;;;;16.51;67.71;101328.06;5082839;28;45500;-79
2021/09/17 04:48:11;;;;;;;;;0.00;0.00;;;;;16.36;67.22;101295.75;5071947;27;45355;-80
2021/09/17 04:50:37;;;;;;;;;0.00;0.00;;;;;16.43;67.80;101310.59;5063821;28;45388;-82
2021/09/17 04:53:02;;;;;;;;;1.00;1.00;;;;;16.34;67.85;101303.66;5064474;28;46302;-82
2021/09/17 04:55:27;;;;;;;;;1.00;1.00;;;;;16.49;67.47;101322.81;5073955;28;45328;-83
2021/09/17 04:57:53;;;;;;;;;1.25;0.25;;;;;16.45;67.10;101314.06;5092939;27;45491;-80
2021/09/17 05:00:18;;;;;;;;;0.25;0.25;;;;;16.52;67.01;101316.66;5079049;27;45368;-80
2021/09/17 05:06:41;;;;;;;;;0.25;0.25;;;;;15.39;67.36;101128.28;5015215;28;45987;-80
2021/09/17 05:09:06;;;;;;;;;1.50;1.00;;;;;16.11;67.10;101255.66;5011976;28;45337;-80
2021/09/17 05:15:06;;;;;;;;;1.00;0.00;;;;;15.06;66.92;101088.22;5040209;28;45572;-81
2021/09/17 05:18:01;;;;;;;;;;;;;;;;;;;;;
2021/09/17 05:20:29;;;;;;;;;0.00;0.00;;;;;15.28;66.97;101098.63;5063397;27;69283;-81
2021/09/17 05:23:07;;;;;;;;;0.75;0.50;;;;;15.48;67.10;101143.09;5069181;28;45295;-82
2021/09/17 05:26:11;;;;;;;;;0.00;0.00;;;;;15.25;66.86;101098.63;5078386;28;47374;-82
2021/09/17 05:28:39;;;;;;;;;1.00;1.00;;;;;15.76;67.09;101184.94;5061777;28;45348;-82
2021/09/17 05:31:05;;;;;;;;;1.00;1.00;;;;;15.00;66.86;101067.25;5073705;27;45230;-82
2021/09/17 05:33:30;;;;;;;;;0.00;0.00;;;;;15.58;67.24;101162.28;5071349;27;45254;-81
2021/09/17 05:35:58;;;;;;;;;0.25;0.25;;;;;15.83;67.23;101210.25;5076047;28;46083;-81
2021/09/17 05:38:27;;;;;;;;;0.25;0.00;;;;;15.79;67.32;101198.03;5081133;28;45312;-83
2021/09/17 05:44:41;;;;;;;;;1.00;1.00;;;;;15.35;66.95;101131.81;5071156;28;45330;-81
2021/09/17 05:47:18;;;;;;;;;2.50;1.00;;;;;16.01;67.28;101253.06;5070291;28;45231;-80
2021/09/17 05:49:45;;;;;;;;;0.25;0.25;;;;;16.52;67.10;101332.44;5073018;27;45209;-81
2021/09/17 05:52:11;;;;;;;;;1.00;1.00;;;;;15.24;67.03;101099.50;5066586;28;45476;-81
2021/09/17 05:54:49;;;;;;;;;1.25;1.25;;;;;15.69;66.78;101186.69;5082125;27;45340;-81
2021/09/17 05:57:17;;;;;;;;;2.00;1.00;;;;;15.12;67.06;101077.69;5079986;28;47328;-80
2021/09/17 06:00:42;;;;;;;;;1.00;1.00;;;;;15.20;66.96;101099.50;5061817;28;45363;-80
2021/09/17 06:03:32;;;;;;;;;2.50;1.75;;;;;15.50;67.10;101148.34;5052660;28;45338;-80
2021/09/17 06:05:58;;;;;;;;;2.25;2.00;;;;;15.88;67.06;101219.84;5070526;28;45681;-79
2021/09/17 06:08:23;;;;;;;;;1.00;1.00;;;;;15.40;66.85;101126.50;5067589;28;45317;-79
2021/09/17 06:10:51;;;;;;;;;0.00;0.00;;;;;15.68;67.05;101171.00;5083315;28;44804;-80
2021/09/17 06:13:16;;;;;;;;;0.25;0.25;;;;;15.48;66.57;101131.72;5097973;27;45209;-82
2021/09/17 06:15:46;;;;;;;;;0.75;0.50;;;;;15.48;67.01;101131.72;5080119;28;45258;-80
2021/09/17 06:18:15;;;;;;;;;2.25;0.00;;;;;15.30;67.05;101091.59;5078265;28;45573;-79
2021/09/17 06:20:43;;;;;;;;;1.00;1.00;;;;;15.24;66.90;101084.63;5080220;28;45349;-81
2021/09/17 06:23:09;;;;;;;;;5.00;3.00;;;;;15.49;66.86;101107.25;5068688;28;45275;-81
2021/09/17 06:25:35;;;;;;;;;0.75;0.75;;;;;15.45;66.41;101095.88;5070224;28;45490;-83
2021/09/17 06:28:00;;;;;;;;;1.00;1.00;;;;;15.23;66.35;101067.16;5070665;28;46202;-81
2021/09/17 06:30:35;;;;;;;;;4.50;1.75;;;;;15.41;66.67;101091.53;5068181;28;45360;-83
2021/09/17 06:33:00;;;;;;;;;0.25;0.25;;;;;15.54;66.48;101101.09;5075131;28;45315;-82
2021/09/17 06:35:32;;;;;;;;;1.00;1.00;;;;;15.47;66.59;101067.03;5077907;27;45290;-83
2021/09/17 06:37:57;;;;;;;;;1.00;1.00;;;;;16.01;65.92;101136.66;5077116;28;46306;-79
2021/09/17 06:40:26;;;;;;;;;0.00;0.00;;;;;17.03;66.51;101297.00;5085138;27;45276;-80
2021/09/17 06:42:55;;;;;;;;;0.50;0.25;;;;;17.10;65.95;101291.66;5084195;27;45284;-78
2021/09/17 06:45:21;;;;;;;;;0.00;0.00;;;;;16.74;66.03;101237.63;5094115;27;44949;-82
2021/09/17 06:47:53;;;;;;;;;0.00;0.00;;;;;16.39;66.20;101147.75;5089782;27;45386;-81
2021/09/17 06:50:21;;;;;;;;;0.00;0.00;;;;;17.14;65.95;101282.00;5072558;28;45869;-81
2021/09/17 06:52:50;;;;;;;;;1.25;1.25;;;;;16.70;66.05;101200.00;5073018;28;45302;-81
2021/09/17 06:55:26;;;;;;;;;0.50;0.50;;;;;17.31;65.36;101291.47;5073705;28;45578;-83
2021/09/17 06:57:57;;;;;;;;;3.50;1.00;;;;;17.33;65.59;101280.03;5073744;27;45612;-83
2021/09/17 07:00:24;;;;;;;;;1.50;1.50;;;;;17.36;65.37;101284.38;5073759;28;45359;-82
2021/09/17 07:02:50;;;;;;;;;1.00;1.00;;;;;17.36;65.55;101271.22;5068770;27;45465;-82
2021/09/17 07:05:15;;;;;;;;;2.00;1.00;;;;;17.54;65.45;101287.69;5075027;28;45481;-80
2021/09/17 07:07:41;;;;;;;;;2.00;2.00;;;;;17.56;65.31;101289.44;5077162;28;45386;-81
2021/09/17 07:10:09;;;;;;;;;2.75;1.00;;;;;17.58;64.99;101278.91;5072155;28;45669;-81
2021/09/17 07:12:34;;;;;;;;;2.75;2.50;;;;;17.52;64.74;101255.28;5072045;28;45343;-81
2021/09/17 07:15:00;;;;;;;;;4.00;1.25;;;;;17.57;65.18;101267.50;5067226;28;45329;-81
2021/09/17 07:17:25;;;;;;;;;1.00;1.00;;;;;17.65;65.16;101287.59;5060911;28;48495;-82
2021/09/17 07:19:51;;;;;;;;;2.00;2.00;;;;;17.37;64.93;101222.13;5066206;28;45287;-81
2021/09/17 07:22:16;;;;;;;;;2.50;1.00;;;;;17.73;65.04;101286.59;5084217;28;45234;-81
2021/09/17 07:24:42;;;;;;;;;2.50;2.00;;;;;17.62;65.19;101262.16;5068194;28;45580;-81
2021/09/17 07:27:08;;;;;;;;;5.00;4.00;;;;;17.73;65.20;101276.06;5084031;27;45557;-84
2021/09/17 07:29:33;;;;;;;;;0.25;0.25;;;;;17.81;64.63;101280.34;5063771;28;45292;-81
2021/09/17 07:31:58;;;;;;;;;1.25;1.25;;;;;17.61;65.13;101241.97;5068688;28;45512;-82
2021/09/17 07:34:24;;;;;;;;;1.00;1.00;;;;;17.65;64.88;101246.34;5077937;27;45192;-81
2021/09/17 07:36:49;;;;;;;;;1.00;1.00;;;;;17.91;65.21;101281.97;5082947;28;46660;-80
2021/09/17 07:39:15;;;;;;;;;2.00;2.00;;;;;17.81;64.37;101252.28;5081471;28;45466;-81
2021/09/17 07:41:40;;;;;;;;;2.75;2.75;;;;;17.92;64.79;101256.53;5060420;28;45512;-81
2021/09/17 07:44:05;;;;;;;;;2.25;2.00;;;;;18.10;64.24;101277.34;5067647;28;45385;-80
2021/09/17 07:46:31;;;;;;;;;2.00;0.00;;;;;18.00;64.14;101238.84;5065692;28;48251;-83
2021/09/17 07:48:56;;;;;;;;;1.25;1.25;;;;;18.32;63.92;101287.56;5063780;28;45603;-80
2021/09/17 07:51:22;;;;;;;;;0.00;0.00;;;;;18.03;64.15;101222.09;5082598;28;45334;-80
2021/09/17 07:53:47;;;;;;;;;1.75;1.25;;;;;18.47;64.03;101278.56;5073104;28;45497;-81
2021/09/17 07:56:13;;;;;;;;;0.50;0.50;;;;;18.11;63.93;101213.22;5077339;28;46662;-80
2021/09/17 07:58:38;;;;;;;;;2.00;0.50;;;;;18.52;63.64;101261.78;5064388;28;45656;-81
2021/09/17 08:01:04;;;;;;;;;1.50;1.25;;;;;18.77;63.65;101299.16;5080839;28;45412;-78
2021/09/17 08:03:31;;;;;;;;;1.00;1.00;;;;;18.85;62.97;101297.28;5061316;28;45380;-78
2021/09/17 08:06:00;;;;;;;;;1.00;1.00;;;;;18.96;62.62;101297.09;5073138;28;45398;-78
2021/09/17 08:08:27;;;;;;;;;1.00;1.00;;;;;18.72;62.47;101243.03;5076136;28;45379;-81
2021/09/17 08:10:53;;;;;;;;;3.75;2.25;;;;;18.79;61.74;101255.19;5078804;28;45353;-80
2021/09/17 08:13:18;;;;;;;;;0.00;0.00;;;;;18.80;61.06;101234.97;5076654;28;45359;-82
2021/09/17 08:15:44;;;;;;;;;1.00;0.00;;;;;19.21;60.39;101294.03;5077913;28;46357;-83
2021/09/17 08:18:09;;;;;;;;;0.00;0.00;;;;;19.27;60.30;101294.81;5051197;28;45384;-79
2021/09/17 08:20:37;;;;;;;;;0.00;0.00;;;;;19.22;59.65;101271.16;5063507;28;45808;-80
2021/09/17 08:23:02;;;;;;;;;0.00;0.00;;;;;19.40;58.97;101296.34;5080399;28;45509;-80
2021/09/17 08:25:28;;;;;;;;;0.00;0.00;;;;;19.36;59.43;101282.31;5080246;28;45358;-81
2021/09/17 08:27:54;;;;;;;;;2.00;0.75;;;;;19.34;58.93;101264.78;5080186;28;45310;-80
2021/09/17 08:30:19;;;;;;;;;0.00;0.00;;;;;19.35;59.12;101250.66;5055524;28;45272;-81
2021/09/17 08:32:45;;;;;;;;;0.00;0.00;;;;;19.55;58.93;101263.47;5065684;28;45398;-79
2021/09/17 08:35:11;;;;;;;;;0.50;0.00;;;;;19.75;58.64;101283.28;5056228;28;46265;-78
2021/09/17 08:37:37;;;;;;;;;0.00;0.00;;;;;19.73;57.92;101254.28;5066301;27;45283;-78
2021/09/17 08:40:04;;;;;;;;;0.00;0.00;;;;;19.75;57.61;101243.69;5076323;28;45500;-81
2021/09/17 08:42:31;;;;;;;;;0.25;0.25;;;;;19.91;57.47;101272.41;5083319;27;45492;-80
2021/09/17 08:44:56;;;;;;;;;0.00;0.00;;;;;20.02;56.93;101269.53;5077062;28;45497;-80
2021/09/17 08:47:23;;;;;;;;;0.25;0.25;;;;;19.86;57.09;101239.06;5073330;28;45437;-79
2021/09/17 08:49:49;;;;;;;;;0.00;0.00;;;;;20.26;56.91;101289.28;5075508;28;45464;-81
2021/09/17 08:52:14;;;;;;;;;0.00;0.00;;;;;20.32;56.69;101289.13;5076017;28;45573;-80
2021/09/17 08:54:39;;;;;;;;;1.50;0.00;;;;;20.42;56.85;101294.22;5078073;28;45508;-79
2021/09/17 08:57:05;;;;;;;;;1.00;0.00;;;;;20.41;56.35;101271.31;5076601;28;45409;-80
2021/09/17 08:59:30;;;;;;;;;0.00;0.00;;;;;20.66;55.89;101290.06;5078064;28;45318;-79
2021/09/17 09:01:56;;;;;;;;;0.00;0.00;;;;;20.64;55.73;101273.38;5083022;28;46630;-81
2021/09/17 09:04:40;;;;;;;;;2.00;0.50;;;;;20.77;55.42;101285.38;5052881;28;46225;-81
2021/09/17 09:07:06;;;;;;;;;0.50;0.00;;;;;20.80;55.22;101287.09;5061114;28;45812;-82
2021/09/17 09:09:31;;;;;;;;;1.00;0.00;;;;;20.94;54.77;101292.03;5081385;28;45394;-81
2021/09/17 09:11:57;;;;;;;;;0.00;0.00;;;;;20.99;54.89;101282.22;5081728;27;45438;-81
2021/09/17 09:14:23;;;;;;;;;0.00;0.00;;;;;20.78;53.89;101230.69;5072928;28;46897;-81
2021/09/17 09:16:51;;;;;;;;;0.00;0.00;;;;;21.16;54.28;101278.22;5078993;28;45461;-80
2021/09/17 09:19:28;;;;;;;;;0.50;0.00;;;;;21.15;53.89;101260.63;5079922;28;45569;-81
2021/09/17 09:22:14;;;;;;;;;0.00;0.00;;;;;21.32;54.01;101281.34;5082425;28;45347;-81
2021/09/17 09:24:43;;;;;;;;;0.00;0.00;;;;;21.31;53.44;101268.16;5080469;28;46185;-81
2021/09/17 09:27:09;;;;;;;;;0.00;0.00;;;;;21.37;52.90;101275.91;5059516;28;45540;-83
2021/09/17 09:29:36;;;;;;;;;0.00;0.00;;;;;21.33;53.28;101266.31;5078266;28;45422;-81
2021/09/17 09:32:02;;;;;;;;;0.00;0.00;;;;;21.37;53.09;101267.94;5081237;28;46343;-80
2021/09/17 09:34:49;;;;;;;;;0.00;0.00;;;;;21.54;53.41;101277.19;5077353;27;46275;-80
2021/09/17 09:37:18;;;;;;;;;1.00;0.00;;;;;21.63;52.92;101274.28;5079975;27;45510;-79
2021/09/17 09:39:51;;;;;;;;;0.00;0.00;;;;;21.70;51.70;101269.66;5061186;28;45512;-78
2021/09/17 09:42:19;;;;;;;;;0.00;0.00;;;;;21.78;51.58;101273.00;5085893;28;45515;-82
2021/09/17 09:45:05;;;;;;;;;0.00;0.00;;;;;21.82;51.77;101273.75;5076096;28;45474;-79
2021/09/17 09:47:36;;;;;;;;;0.00;0.00;;;;;21.72;51.97;101263.44;5052054;28;45284;-82
2021/09/17 09:50:10;;;;;;;;;0.00;0.00;;;;;21.77;51.82;101261.53;5081680;28;45422;-82
2021/09/17 09:52:36;;;;;;;;;2.00;0.00;;;;;21.74;51.12;101243.03;5074527;28;45535;-79
2021/09/17 09:55:04;;;;;;;;;0.25;0.25;;;;;21.77;51.08;101256.22;5079321;28;45399;-81
2021/09/17 09:57:32;;;;;;;;;0.50;0.50;;;;;21.90;51.03;101269.97;5062507;28;45445;-79
2021/09/17 10:00:03;;;;;;;;;3.75;1.00;;;;;21.81;50.57;101237.59;5082032;28;45177;-80
2021/09/17 10:02:30;;;;;;;;;0.00;0.00;;;;;21.91;50.77;101257.59;5080840;28;45608;-82
2021/09/17 10:04:58;;;;;;;;;1.25;0.00;;;;;21.79;50.40;101232.34;5079798;27;45450;-80
2021/09/17 10:07:26;;;;;;;;;0.00;0.00;;;;;21.90;49.96;101258.50;5079909;28;45301;-82
2021/09/17 10:09:51;;;;;;;;;0.00;0.00;;;;;21.76;50.28;101233.31;5081163;27;45488;-81
2021/09/17 10:12:18;;;;;;;;;0.00;0.00;;;;;21.89;50.47;101247.03;5093768;27;45247;-81
2021/09/17 10:14:46;;;;;;;;;1.00;1.00;;;;;21.97;49.42;101253.88;5080309;28;45717;-81
2021/09/17 10:17:21;;;;;;;;;1.50;0.00;;;;;21.87;49.23;101226.81;5082104;28;45270;-83
2021/09/17 10:19:48;;;;;;;;;0.00;0.00;;;;;22.09;49.53;101257.94;5061579;28;45461;-82
2021/09/17 10:22:30;;;;;;;;;0.50;0.00;;;;;22.12;49.11;101255.19;5065079;28;45418;-81
2021/09/17 10:25:08;;;;;;;;;0.00;0.00;;;;;22.07;49.60;101233.25;5060504;28;47468;-81
2021/09/17 10:27:34;;;;;;;;;0.50;0.50;;;;;22.20;49.45;101229.28;5066257;28;45412;-81
2021/09/17 10:30:03;;;;;;;;;0.00;0.00;;;;;22.40;49.16;101233.94;5077980;27;45469;-80
2021/09/17 10:32:48;;;;;;;;;0.00;0.00;;;;;22.52;48.25;101245.06;5059685;28;45558;-80
2021/09/17 10:35:20;;;;;;;;;0.00;0.00;;;;;22.47;48.57;101234.59;5058722;28;48642;-81
2021/09/17 10:38:10;;;;;;;;;0.00;0.00;;;;;22.36;47.90;101245.53;5079685;28;45490;-81
2021/09/17 10:40:42;;;;;;;;;0.00;0.00;;;;;22.39;48.42;101242.78;5075241;28;45375;-81
2021/09/17 10:43:10;;;;;;;;;0.00;0.00;;;;;22.50;48.82;101238.91;5075366;28;45299;-80
2021/09/17 10:45:41;;;;;;;;;0.00;0.00;;;;;22.55;48.46;101242.28;5053977;28;47142;-81
2021/09/17 10:48:11;;;;;;;;;0.00;0.00;;;;;22.63;47.87;101236.78;5073650;28;45232;-80
2021/09/17 10:50:55;;;;;;;;;0.00;0.00;;;;;22.56;48.50;101209.53;5056650;28;45468;-79
2021/09/17 10:53:38;;;;;;;;;0.00;0.00;;;;;22.82;47.67;101229.03;5089678;28;44808;-80
2021/09/17 10:56:04;;;;;;;;;0.00;0.00;;;;;22.78;47.55;101217.66;5075567;28;47516;-82
2021/09/17 10:58:32;;;;;;;;;0.00;0.00;;;;;22.82;48.22;101213.13;5075258;28;45788;-80
2021/09/17 11:01:06;;;;;;;;;0.00;0.00;;;;;22.87;46.77;101221.75;5076713;28;45275;-80
2021/09/17 11:03:40;;;;;;;;;0.00;0.00;;;;;22.87;47.09;101228.84;5072649;28;45197;-80
2021/09/17 11:09:02;;;;;;;;;0.00;0.00;;;;;22.73;46.09;101206.31;5083907;27;45491;-80
2021/09/17 11:11:41;;;;;;;;;0.50;0.00;;;;;22.97;46.45;101210.81;5096900;27;45270;-80
2021/09/17 11:14:19;;;;;;;;;1.00;0.00;;;;;23.03;46.31;101218.56;5082434;27;45355;-79
2021/09/17 11:16:47;;;;;;;;;0.00;0.00;;;;;23.02;45.83;101214.16;5083338;28;45250;-80
2021/09/17 11:19:18;;;;;;;;;0.00;0.00;;;;;22.92;46.22;101213.63;5065002;28;45336;-81
2021/09/17 11:21:47;;;;;;;;;0.00;0.00;;;;;22.78;46.69;101220.31;5060386;28;45347;-80
2021/09/17 11:24:20;;;;;;;;;0.00;0.00;;;;;22.71;46.26;101213.47;5082380;28;45271;-80
2021/09/17 11:26:50;;;;;;;;;0.00;0.00;;;;;22.57;46.75;101175.94;5091778;28;46268;-79
2021/09/17 11:29:17;;;;;;;;;0.00;0.00;;;;;22.74;46.81;101181.53;5083251;27;45388;-78
2021/09/17 11:31:43;;;;;;;;;0.00;0.00;;;;;23.04;47.11;101207.88;5067211;28;45295;-79
2021/09/17 11:34:11;;;;;;;;;0.00;0.00;;;;;22.79;45.94;101181.38;5083508;28;45429;-79
2021/09/17 11:36:52;;;;;;;;;0.00;0.00;;;;;22.90;46.27;101192.47;5082259;28;45148;-79
2021/09/17 11:39:18;;;;;;;;;0.00;0.00;;;;;23.00;45.89;101194.78;5065665;28;45408;-80
2021/09/17 11:41:49;;;;;;;;;0.00;0.00;;;;;23.05;45.17;101192.81;5064656;28;45495;-81
2021/09/17 11:45:02;;;;;;;;;0.00;0.00;;;;;23.15;44.74;101188.00;5064635;28;45308;-80